Superfun — ZCCL5 — position and weather

sailwx.info

Track history (hours):
 
Tides and Currents Weather Stations Pressure Air Temp Water Temp Dewpoint Dewpoint Depression Visibility Wind Speed Wind Dir Waves Ship Positions

Superfun

Last reported at 2016-Apr-29 15:08 UTC. Time now 2016-May-02 19:21 UTC.
Position N 43°27' E 006°58'.

Length 40 m.

Type: Other ship. MMSI: 319163000.

Date/timePositionNaut miles runAvg speedWind from/ knotsBaromVisibWave heightAir tempDewpointWater temp
2016-Apr-29 15:08N 43°27' E 006°58'610.2
2016-Apr-29 14:33N 43°30' E 007°05'1010.0
2016-Apr-29 13:33N 43°37' E 007°16'9 0.4
2016-Apr-28 16:26N 43°43' E 007°25'0 0.5
2016-Apr-28 15:27N 43°43' E 007°25'3 3.0
2016-Apr-28 14:33N 43°42' E 007°21'53 8.7
2016-Apr-28 08:27N 44°07' E 008°25'2110.6
2016-Apr-28 06:29N 44°23' E 008°45'4 4.6
2016-Apr-28 05:32N 44°25' E 008°50'0 0.0
2016-Apr-28 04:32N 44°25' E 008°50'0 0.0
2016-Apr-28 03:29N 44°25' E 008°50'0 0.0
2016-Apr-28 02:29N 44°25' E 008°50'0 0.0
2016-Apr-28 01:32N 44°25' E 008°50'0 0.0
2016-Apr-28 00:32N 44°25' E 008°50'0 0.0
2016-Apr-27 23:32N 44°25' E 008°50'0 0.0
2016-Apr-27 22:26N 44°25' E 008°50'0 0.0
2016-Apr-27 21:29N 44°25' E 008°50'0 0.0
2016-Apr-27 20:23N 44°25' E 008°50'0 0.0
2016-Apr-27 19:32N 44°25' E 008°50'0 0.0
2016-Apr-27 18:32N 44°25' E 008°50'0 0.0
2016-Apr-27 17:32N 44°25' E 008°50'0 0.0
2016-Apr-27 16:29N 44°25' E 008°50'0 0.0
2016-Apr-27 15:29N 44°25' E 008°50'0 0.0
2016-Apr-27 14:29N 44°25' E 008°50'0 0.0
2016-Apr-27 13:17N 44°25' E 008°50'0 0.0
2016-Apr-27 12:29N 44°25' E 008°50'0 0.0
2016-Apr-27 11:29N 44°25' E 008°50'0 0.0
2016-Apr-27 10:29N 44°25' E 008°50'0 0.0
2016-Apr-27 09:29N 44°25' E 008°50'0 0.0
2016-Apr-27 08:29N 44°25' E 008°50'0 0.0
2016-Apr-27 07:29N 44°25' E 008°50'0 0.0
2016-Apr-27 06:29N 44°25' E 008°50'0 0.0
2016-Apr-27 05:28N 44°25' E 008°50'0 0.0
2016-Apr-27 04:28N 44°25' E 008°50'0 0.0
2016-Apr-27 03:31N 44°25' E 008°50'0 0.0
2016-Apr-27 02:32N 44°25' E 008°50'0 0.0
2016-Apr-27 01:28N 44°25' E 008°50'0 0.0
2016-Apr-27 00:22N 44°25' E 008°50'0 0.0
2016-Apr-26 23:29N 44°25' E 008°50'0 0.0
2016-Apr-26 22:32N 44°25' E 008°50'0 0.0
2016-Apr-26 21:31N 44°25' E 008°50'0 0.0
2016-Apr-26 20:31N 44°25' E 008°50'0 0.0
2016-Apr-26 19:28N 44°25' E 008°50'0 0.0
2016-Apr-26 18:28N 44°25' E 008°50'0 0.0
2016-Apr-26 17:29N 44°25' E 008°50'0 0.0
2016-Apr-26 16:23N 44°25' E 008°50'0 0.0
2016-Apr-26 15:16N 44°25' E 008°50'0 0.0
2016-Apr-26 14:13N 44°25' E 008°50'0 0.0
2016-Apr-26 13:31N 44°25' E 008°50'0 0.0
2016-Apr-26 12:28N 44°25' E 008°50'0 0.0
2016-Apr-26 11:31N 44°25' E 008°50'0 0.0
2016-Apr-26 10:25N 44°25' E 008°50'0 0.0
2016-Apr-26 09:31N 44°25' E 008°50'0 0.0
2016-Apr-26 08:28N 44°25' E 008°50'0 0.0
2016-Apr-26 07:28N 44°25' E 008°50'0 0.0
2016-Apr-26 06:28N 44°25' E 008°50'0 0.0
2016-Apr-26 05:31N 44°25' E 008°50'0 0.0
2016-Apr-26 04:25N 44°25' E 008°50'0 0.0
2016-Apr-26 03:19N 44°25' E 008°50'0 0.0
2016-Apr-26 02:22N 44°25' E 008°50'0 0.0
2016-Apr-26 01:28N 44°25' E 008°50'0 0.0
2016-Apr-26 00:31N 44°25' E 008°50'0 0.0
2016-Apr-25 23:31N 44°25' E 008°50'0 0.0
2016-Apr-25 22:31N 44°25' E 008°50'0 0.0
2016-Apr-25 21:25N 44°25' E 008°50'0 0.0
2016-Apr-25 20:28N 44°25' E 008°50'0 0.0
2016-Apr-25 19:28N 44°25' E 008°50'0 0.0
2016-Apr-25 18:31N 44°25' E 008°50'0 0.0
2016-Apr-25 17:31N 44°25' E 008°50'0 0.0
2016-Apr-25 16:25N 44°25' E 008°50'0 0.0
2016-Apr-25 15:25N 44°25' E 008°50'0 0.0
2016-Apr-25 14:28N 44°25' E 008°50'0 0.0
2016-Apr-25 13:10N 44°25' E 008°50'0 0.0
2016-Apr-25 11:19N 44°25' E 008°50'0 0.0
2016-Apr-25 08:28N 44°25' E 008°50'0 0.0
2016-Apr-25 07:28N 44°25' E 008°50'0 0.0
2016-Apr-25 03:13N 44°25' E 008°50'0 0.0
2016-Apr-25 01:16N 44°25' E 008°50'0 0.0
2016-Apr-25 00:31N 44°25' E 008°50'0 0.0
2016-Apr-24 23:31N 44°25' E 008°50'0 0.0
2016-Apr-24 22:31N 44°25' E 008°50'0 0.0
2016-Apr-24 21:25N 44°25' E 008°50'0 0.0
2016-Apr-24 20:16N 44°25' E 008°50'0 0.0
2016-Apr-24 19:04N 44°25' E 008°50'0 0.0
2016-Apr-24 18:31N 44°25' E 008°50'0 0.0
2016-Apr-24 17:04N 44°25' E 008°50'0 0.0
2016-Apr-24 16:28N 44°25' E 008°50'0 0.0
2016-Apr-24 15:28N 44°25' E 008°50'0 0.0
2016-Apr-24 14:10N 44°25' E 008°50'0 0.0
2016-Apr-24 12:28N 44°25' E 008°50'0 0.0
2016-Apr-24 10:28N 44°25' E 008°50'0 0.0
2016-Apr-24 08:22N 44°25' E 008°50'0 0.0
2016-Apr-24 07:16N 44°25' E 008°50'0 0.0
2016-Apr-24 05:28N 44°25' E 008°50'0 0.0
2016-Apr-24 01:31N 44°25' E 008°50'0 0.0
2016-Apr-24 00:19N 44°25' E 008°50'0 0.0
2016-Apr-23 23:13N 44°25' E 008°50'0 0.0
2016-Apr-23 22:28N 44°25' E 008°50'0 0.0
2016-Apr-23 21:22N 44°25' E 008°50'0 0.0
2016-Apr-23 20:31N 44°25' E 008°50'0 0.0
2016-Apr-23 19:31N 44°25' E 008°50'0 0.0
2016-Apr-23 18:25N 44°25' E 008°50'0 0.0
2016-Apr-23 17:28N 44°25' E 008°50'0 0.0
2016-Apr-23 16:28N 44°25' E 008°50'0 0.0
2016-Apr-22 11:22N 44°25' E 008°50'0 0.0
2016-Apr-21 18:16N 44°25' E 008°50'0 0.0
2016-Apr-21 16:28N 44°25' E 008°50'0 0.0
2016-Apr-21 15:28N 44°25' E 008°50'0 0.0
2016-Apr-21 14:04N 44°25' E 008°50'0 0.0
2016-Apr-21 13:28N 44°25' E 008°50'0 0.0
2016-Apr-21 12:28N 44°25' E 008°50'0 0.0
2016-Apr-21 11:28N 44°25' E 008°50'0 0.0
2016-Apr-21 10:28N 44°25' E 008°50'0 0.0
2016-Apr-21 09:28N 44°25' E 008°50'0 0.0
2016-Apr-21 08:22N 44°25' E 008°50'0 0.0
2016-Apr-21 07:22N 44°25' E 008°50'0 0.0
2016-Apr-20 14:22N 44°25' E 008°50'0 0.0
2016-Apr-19 23:10N 44°25' E 008°50'0 0.0
2016-Apr-19 22:04N 44°25' E 008°50'  
Track history (hours):
 
Tides and Currents Weather Stations Pressure Air Temp Water Temp Dewpoint Dewpoint Depression Visibility Wind Speed Wind Dir Waves Ship Positions

Superfun

Last reported at 2016-Apr-29 15:08 UTC. Time now 2016-May-02 19:21 UTC.
Position N 43°27' E 006°58'.

Length 40 m.

Type: Other ship. MMSI: 319163000.

Date/timePositionNaut miles runAvg speedWind from/ knotsBaromVisibWave heightAir tempDewpointWater temp
2016-Apr-29 15:08N 43°27' E 006°58'610.2
2016-Apr-29 14:33N 43°30' E 007°05'1010.0
2016-Apr-29 13:33N 43°37' E 007°16'9 0.4
2016-Apr-28 16:26N 43°43' E 007°25'0 0.5
2016-Apr-28 15:27N 43°43' E 007°25'3 3.0
2016-Apr-28 14:33N 43°42' E 007°21'53 8.7
2016-Apr-28 08:27N 44°07' E 008°25'2110.6
2016-Apr-28 06:29N 44°23' E 008°45'4 4.6
2016-Apr-28 05:32N 44°25' E 008°50'0 0.0
2016-Apr-28 04:32N 44°25' E 008°50'0 0.0
2016-Apr-28 03:29N 44°25' E 008°50'0 0.0
2016-Apr-28 02:29N 44°25' E 008°50'0 0.0
2016-Apr-28 01:32N 44°25' E 008°50'0 0.0
2016-Apr-28 00:32N 44°25' E 008°50'0 0.0
2016-Apr-27 23:32N 44°25' E 008°50'0 0.0
2016-Apr-27 22:26N 44°25' E 008°50'0 0.0
2016-Apr-27 21:29N 44°25' E 008°50'0 0.0
2016-Apr-27 20:23N 44°25' E 008°50'0 0.0
2016-Apr-27 19:32N 44°25' E 008°50'0 0.0
2016-Apr-27 18:32N 44°25' E 008°50'0 0.0
2016-Apr-27 17:32N 44°25' E 008°50'0 0.0
2016-Apr-27 16:29N 44°25' E 008°50'0 0.0
2016-Apr-27 15:29N 44°25' E 008°50'0 0.0
2016-Apr-27 14:29N 44°25' E 008°50'0 0.0
2016-Apr-27 13:17N 44°25' E 008°50'0 0.0
2016-Apr-27 12:29N 44°25' E 008°50'0 0.0
2016-Apr-27 11:29N 44°25' E 008°50'0 0.0
2016-Apr-27 10:29N 44°25' E 008°50'0 0.0
2016-Apr-27 09:29N 44°25' E 008°50'0 0.0
2016-Apr-27 08:29N 44°25' E 008°50'0 0.0
2016-Apr-27 07:29N 44°25' E 008°50'0 0.0
2016-Apr-27 06:29N 44°25' E 008°50'0 0.0
2016-Apr-27 05:28N 44°25' E 008°50'0 0.0
2016-Apr-27 04:28N 44°25' E 008°50'0 0.0
2016-Apr-27 03:31N 44°25' E 008°50'0 0.0
2016-Apr-27 02:32N 44°25' E 008°50'0 0.0
2016-Apr-27 01:28N 44°25' E 008°50'0 0.0
2016-Apr-27 00:22N 44°25' E 008°50'0 0.0
2016-Apr-26 23:29N 44°25' E 008°50'0 0.0
2016-Apr-26 22:32N 44°25' E 008°50'0 0.0
2016-Apr-26 21:31N 44°25' E 008°50'0 0.0
2016-Apr-26 20:31N 44°25' E 008°50'0 0.0
2016-Apr-26 19:28N 44°25' E 008°50'0 0.0
2016-Apr-26 18:28N 44°25' E 008°50'0 0.0
2016-Apr-26 17:29N 44°25' E 008°50'0 0.0
2016-Apr-26 16:23N 44°25' E 008°50'0 0.0
2016-Apr-26 15:16N 44°25' E 008°50'0 0.0
2016-Apr-26 14:13N 44°25' E 008°50'0 0.0
2016-Apr-26 13:31N 44°25' E 008°50'0 0.0
2016-Apr-26 12:28N 44°25' E 008°50'0 0.0
2016-Apr-26 11:31N 44°25' E 008°50'0 0.0
2016-Apr-26 10:25N 44°25' E 008°50'0 0.0
2016-Apr-26 09:31N 44°25' E 008°50'0 0.0
2016-Apr-26 08:28N 44°25' E 008°50'0 0.0
2016-Apr-26 07:28N 44°25' E 008°50'0 0.0
2016-Apr-26 06:28N 44°25' E 008°50'0 0.0
2016-Apr-26 05:31N 44°25' E 008°50'0 0.0
2016-Apr-26 04:25N 44°25' E 008°50'0 0.0
2016-Apr-26 03:19N 44°25' E 008°50'0 0.0
2016-Apr-26 02:22N 44°25' E 008°50'0 0.0
2016-Apr-26 01:28N 44°25' E 008°50'0 0.0
2016-Apr-26 00:31N 44°25' E 008°50'0 0.0
2016-Apr-25 23:31N 44°25' E 008°50'0 0.0
2016-Apr-25 22:31N 44°25' E 008°50'0 0.0
2016-Apr-25 21:25N 44°25' E 008°50'0 0.0
2016-Apr-25 20:28N 44°25' E 008°50'0 0.0
2016-Apr-25 19:28N 44°25' E 008°50'0 0.0
2016-Apr-25 18:31N 44°25' E 008°50'0 0.0
2016-Apr-25 17:31N 44°25' E 008°50'0 0.0
2016-Apr-25 16:25N 44°25' E 008°50'0 0.0
2016-Apr-25 15:25N 44°25' E 008°50'0 0.0
2016-Apr-25 14:28N 44°25' E 008°50'0 0.0
2016-Apr-25 13:10N 44°25' E 008°50'0 0.0
2016-Apr-25 11:19N 44°25' E 008°50'0 0.0
2016-Apr-25 08:28N 44°25' E 008°50'0 0.0
2016-Apr-25 07:28N 44°25' E 008°50'0 0.0
2016-Apr-25 03:13N 44°25' E 008°50'0 0.0
2016-Apr-25 01:16N 44°25' E 008°50'0 0.0
2016-Apr-25 00:31N 44°25' E 008°50'0 0.0
2016-Apr-24 23:31N 44°25' E 008°50'0 0.0
2016-Apr-24 22:31N 44°25' E 008°50'0 0.0
2016-Apr-24 21:25N 44°25' E 008°50'0 0.0
2016-Apr-24 20:16N 44°25' E 008°50'0 0.0
2016-Apr-24 19:04N 44°25' E 008°50'0 0.0
2016-Apr-24 18:31N 44°25' E 008°50'0 0.0
2016-Apr-24 17:04N 44°25' E 008°50'0 0.0
2016-Apr-24 16:28N 44°25' E 008°50'0 0.0
2016-Apr-24 15:28N 44°25' E 008°50'0 0.0
2016-Apr-24 14:10N 44°25' E 008°50'0 0.0
2016-Apr-24 12:28N 44°25' E 008°50'0 0.0
2016-Apr-24 10:28N 44°25' E 008°50'0 0.0
2016-Apr-24 08:22N 44°25' E 008°50'0 0.0
2016-Apr-24 07:16N 44°25' E 008°50'0 0.0
2016-Apr-24 05:28N 44°25' E 008°50'0 0.0
2016-Apr-24 01:31N 44°25' E 008°50'0 0.0
2016-Apr-24 00:19N 44°25' E 008°50'0 0.0
2016-Apr-23 23:13N 44°25' E 008°50'0 0.0
2016-Apr-23 22:28N 44°25' E 008°50'0 0.0
2016-Apr-23 21:22N 44°25' E 008°50'0 0.0
2016-Apr-23 20:31N 44°25' E 008°50'0 0.0
2016-Apr-23 19:31N 44°25' E 008°50'0 0.0
2016-Apr-23 18:25N 44°25' E 008°50'0 0.0
2016-Apr-23 17:28N 44°25' E 008°50'0 0.0
2016-Apr-23 16:28N 44°25' E 008°50'0 0.0
2016-Apr-22 11:22N 44°25' E 008°50'0 0.0
2016-Apr-21 18:16N 44°25' E 008°50'0 0.0
2016-Apr-21 16:28N 44°25' E 008°50'0 0.0
2016-Apr-21 15:28N 44°25' E 008°50'0 0.0
2016-Apr-21 14:04N 44°25' E 008°50'0 0.0
2016-Apr-21 13:28N 44°25' E 008°50'0 0.0
2016-Apr-21 12:28N 44°25' E 008°50'0 0.0
2016-Apr-21 11:28N 44°25' E 008°50'0 0.0
2016-Apr-21 10:28N 44°25' E 008°50'0 0.0
2016-Apr-21 09:28N 44°25' E 008°50'0 0.0
2016-Apr-21 08:22N 44°25' E 008°50'0 0.0
2016-Apr-21 07:22N 44°25' E 008°50'0 0.0
2016-Apr-20 14:22N 44°25' E 008°50'0 0.0
2016-Apr-19 23:10N 44°25' E 008°50'0 0.0
2016-Apr-19 22:04N 44°25' E 008°50'  

Dump ship's entire track history